sensor_id;sensor_type;location;lat;lon;timestamp;temperature;humidity
27633;DHT22;15046;50.930;13.334;2023-02-23T00:01:48;7.60;99.90
27633;DHT22;15046;50.930;13.334;2023-02-23T00:04:14;7.60;99.90
27633;DHT22;15046;50.930;13.334;2023-02-23T00:06:40;7.60;99.90
27633;DHT22;15046;50.930;13.334;2023-02-23T00:09:06;7.60;99.90
27633;DHT22;15046;50.930;13.334;2023-02-23T00:11:54;7.60;99.90
27633;DHT22;15046;50.930;13.334;2023-02-23T00:14:24;7.60;99.90
27633;DHT22;15046;50.930;13.334;2023-02-23T00:16:52;7.60;99.90
27633;DHT22;15046;50.930;13.334;2023-02-23T00:19:18;7.60;99.90
27633;DHT22;15046;50.930;13.334;2023-02-23T00:21:44;7.60;99.90
27633;DHT22;15046;50.930;13.334;2023-02-23T00:24:12;7.60;99.90
27633;DHT22;15046;50.930;13.334;2023-02-23T00:26:44;7.60;99.90
27633;DHT22;15046;50.930;13.334;2023-02-23T00:29:14;7.60;99.90
27633;DHT22;15046;50.930;13.334;2023-02-23T00:31:47;7.60;99.90
27633;DHT22;15046;50.930;13.334;2023-02-23T00:34:15;7.50;99.90
27633;DHT22;15046;50.930;13.334;2023-02-23T00:36:47;7.50;99.90
27633;DHT22;15046;50.930;13.334;2023-02-23T00:39:13;7.50;99.90
27633;DHT22;15046;50.930;13.334;2023-02-23T00:41:54;7.50;99.90
27633;DHT22;15046;50.930;13.334;2023-02-23T00:44:20;7.50;99.90
27633;DHT22;15046;50.930;13.334;2023-02-23T00:46:48;7.50;99.90
27633;DHT22;15046;50.930;13.334;2023-02-23T00:49:16;7.50;99.90
27633;DHT22;15046;50.930;13.334;2023-02-23T00:51:43;7.40;99.90
27633;DHT22;15046;50.930;13.334;2023-02-23T00:54:12;7.40;99.90
27633;DHT22;15046;50.930;13.334;2023-02-23T00:56:38;7.40;99.90
27633;DHT22;15046;50.930;13.334;2023-02-23T00:59:05;7.40;99.90
27633;DHT22;15046;50.930;13.334;2023-02-23T01:01:31;7.40;99.90
27633;DHT22;15046;50.930;13.334;2023-02-23T01:03:57;7.40;99.90
27633;DHT22;15046;50.930;13.334;2023-02-23T01:06:23;7.40;99.90
27633;DHT22;15046;50.930;13.334;2023-02-23T01:08:50;7.50;99.90
27633;DHT22;15046;50.930;13.334;2023-02-23T01:11:23;7.40;99.90
27633;DHT22;15046;50.930;13.334;2023-02-23T01:13:54;7.40;99.90
27633;DHT22;15046;50.930;13.334;2023-02-23T01:16:23;7.50;99.90
27633;DHT22;15046;50.930;13.334;2023-02-23T01:18:53;7.50;99.90
27633;DHT22;15046;50.930;13.334;2023-02-23T01:21:28;7.50;99.90
27633;DHT22;15046;50.930;13.334;2023-02-23T01:23:55;7.50;99.90
27633;DHT22;15046;50.930;13.334;2023-02-23T01:26:36;7.50;99.90
27633;DHT22;15046;50.930;13.334;2023-02-23T01:29:10;7.60;99.90
27633;DHT22;15046;50.930;13.334;2023-02-23T01:31:42;7.60;99.90
27633;DHT22;15046;50.930;13.334;2023-02-23T01:34:10;7.60;99.90
27633;DHT22;15046;50.930;13.334;2023-02-23T01:36:38;7.60;99.90
27633;DHT22;15046;50.930;13.334;2023-02-23T01:39:06;7.60;99.90
27633;DHT22;15046;50.930;13.334;2023-02-23T01:41:34;7.70;99.90
27633;DHT22;15046;50.930;13.334;2023-02-23T01:45:15;7.70;99.90
27633;DHT22;15046;50.930;13.334;2023-02-23T01:46:53;7.70;99.90
27633;DHT22;15046;50.930;13.334;2023-02-23T01:49:23;7.70;99.90
27633;DHT22;15046;50.930;13.334;2023-02-23T01:54:27;7.80;99.90
27633;DHT22;15046;50.930;13.334;2023-02-23T01:56:58;7.80;99.90
27633;DHT22;15046;50.930;13.334;2023-02-23T01:59:48;7.80;99.90
27633;DHT22;15046;50.930;13.334;2023-02-23T02:02:17;7.80;99.90
27633;DHT22;15046;50.930;13.334;2023-02-23T02:04:43;7.90;99.90
27633;DHT22;15046;50.930;13.334;2023-02-23T02:07:11;7.90;99.90
27633;DHT22;15046;50.930;13.334;2023-02-23T02:09:40;7.80;99.90
27633;DHT22;15046;50.930;13.334;2023-02-23T02:12:26;7.80;99.90
27633;DHT22;15046;50.930;13.334;2023-02-23T02:14:51;7.80;99.90
27633;DHT22;15046;50.930;13.334;2023-02-23T02:29:07;7.70;99.90
27633;DHT22;15046;50.930;13.334;2023-02-23T02:34:34;7.60;99.90
27633;DHT22;15046;50.930;13.334;2023-02-23T02:37:15;7.60;99.90
27633;DHT22;15046;50.930;13.334;2023-02-23T02:40:10;7.70;99.90
27633;DHT22;15046;50.930;13.334;2023-02-23T02:43:04;7.70;99.90
27633;DHT22;15046;50.930;13.334;2023-02-23T02:54:20;7.70;99.90
27633;DHT22;15046;50.930;13.334;2023-02-23T02:56:43;7.70;99.90
27633;DHT22;15046;50.930;13.334;2023-02-23T02:59:12;7.70;99.90
27633;DHT22;15046;50.930;13.334;2023-02-23T03:01:58;7.70;99.90
27633;DHT22;15046;50.930;13.334;2023-02-23T03:04:42;7.70;99.90
27633;DHT22;15046;50.930;13.334;2023-02-23T03:10:58;7.60;99.90
27633;DHT22;15046;50.930;13.334;2023-02-23T03:20:10;7.60;99.90
27633;DHT22;15046;50.930;13.334;2023-02-23T03:23:29;7.60;99.90
27633;DHT22;15046;50.930;13.334;2023-02-23T03:26:35;7.60;99.90
27633;DHT22;15046;50.930;13.334;2023-02-23T03:29:33;7.60;99.90
27633;DHT22;15046;50.930;13.334;2023-02-23T03:32:26;7.60;99.90
27633;DHT22;15046;50.930;13.334;2023-02-23T03:35:39;7.60;99.90
27633;DHT22;15046;50.930;13.334;2023-02-23T03:38:35;7.60;99.90
27633;DHT22;15046;50.930;13.334;2023-02-23T03:41:23;7.60;99.90
27633;DHT22;15046;50.930;13.334;2023-02-23T03:44:35;7.70;99.90
27633;DHT22;15046;50.930;13.334;2023-02-23T03:47:24;7.60;99.90
27633;DHT22;15046;50.930;13.334;2023-02-23T03:50:19;7.60;99.90
27633;DHT22;15046;50.930;13.334;2023-02-23T03:53:07;7.60;99.90
27633;DHT22;15046;50.930;13.334;2023-02-23T03:55:55;7.60;99.90
27633;DHT22;15046;50.930;13.334;2023-02-23T03:58:46;7.60;99.90
27633;DHT22;15046;50.930;13.334;2023-02-23T04:01:34;7.60;99.90
27633;DHT22;15046;50.930;13.334;2023-02-23T04:04:21;7.60;99.90
27633;DHT22;15046;50.930;13.334;2023-02-23T04:07:07;7.60;99.90
27633;DHT22;15046;50.930;13.334;2023-02-23T04:09:52;7.50;99.90
27633;DHT22;15046;50.930;13.334;2023-02-23T04:13:01;7.60;99.90
27633;DHT22;15046;50.930;13.334;2023-02-23T04:15:55;7.60;99.90
27633;DHT22;15046;50.930;13.334;2023-02-23T04:18:27;7.50;99.90
27633;DHT22;15046;50.930;13.334;2023-02-23T04:20:54;7.50;99.90
27633;DHT22;15046;50.930;13.334;2023-02-23T04:23:21;7.50;99.90
27633;DHT22;15046;50.930;13.334;2023-02-23T04:25:48;7.50;99.90
27633;DHT22;15046;50.930;13.334;2023-02-23T04:28:14;7.50;99.90
27633;DHT22;15046;50.930;13.334;2023-02-23T04:30:40;7.40;99.90
27633;DHT22;15046;50.930;13.334;2023-02-23T04:33:07;7.40;99.90
27633;DHT22;15046;50.930;13.334;2023-02-23T04:35:33;7.40;99.90
27633;DHT22;15046;50.930;13.334;2023-02-23T04:37:58;7.30;99.90
27633;DHT22;15046;50.930;13.334;2023-02-23T04:40:26;7.30;99.90
27633;DHT22;15046;50.930;13.334;2023-02-23T04:42:52;7.20;99.90
27633;DHT22;15046;50.930;13.334;2023-02-23T04:45:19;7.10;99.90
27633;DHT22;15046;50.930;13.334;2023-02-23T04:47:48;7.00;99.90
27633;DHT22;15046;50.930;13.334;2023-02-23T04:50:14;7.00;99.90
27633;DHT22;15046;50.930;13.334;2023-02-23T04:52:40;6.90;99.90
27633;DHT22;15046;50.930;13.334;2023-02-23T04:55:08;6.90;99.90
27633;DHT22;15046;50.930;13.334;2023-02-23T04:57:39;6.90;99.90
27633;DHT22;15046;50.930;13.334;2023-02-23T05:00:05;6.90;99.90
27633;DHT22;15046;50.930;13.334;2023-02-23T05:02:31;6.80;99.90
27633;DHT22;15046;50.930;13.334;2023-02-23T05:04:57;6.70;99.90
27633;DHT22;15046;50.930;13.334;2023-02-23T05:07:23;6.70;99.90
27633;DHT22;15046;50.930;13.334;2023-02-23T05:09:49;6.60;99.90
27633;DHT22;15046;50.930;13.334;2023-02-23T05:12:15;6.60;99.90
27633;DHT22;15046;50.930;13.334;2023-02-23T05:14:41;6.60;99.90
27633;DHT22;15046;50.930;13.334;2023-02-23T05:17:07;6.60;99.90
27633;DHT22;15046;50.930;13.334;2023-02-23T05:19:33;6.50;99.90
27633;DHT22;15046;50.930;13.334;2023-02-23T05:21:58;6.50;99.90
27633;DHT22;15046;50.930;13.334;2023-02-23T05:24:24;6.50;99.90
27633;DHT22;15046;50.930;13.334;2023-02-23T05:26:50;6.40;99.90
27633;DHT22;15046;50.930;13.334;2023-02-23T05:29:18;6.50;99.90
27633;DHT22;15046;50.930;13.334;2023-02-23T05:31:46;6.50;99.90
27633;DHT22;15046;50.930;13.334;2023-02-23T05:34:13;6.40;99.90
27633;DHT22;15046;50.930;13.334;2023-02-23T05:36:39;6.40;99.90
27633;DHT22;15046;50.930;13.334;2023-02-23T05:39:05;6.50;99.90
27633;DHT22;15046;50.930;13.334;2023-02-23T05:41:31;6.40;99.90
27633;DHT22;15046;50.930;13.334;2023-02-23T05:43:57;6.40;99.90
27633;DHT22;15046;50.930;13.334;2023-02-23T05:46:24;6.40;99.90
27633;DHT22;15046;50.930;13.334;2023-02-23T05:48:55;6.40;99.90
27633;DHT22;15046;50.930;13.334;2023-02-23T05:51:21;6.40;99.90
27633;DHT22;15046;50.930;13.334;2023-02-23T05:53:46;6.30;99.90
27633;DHT22;15046;50.930;13.334;2023-02-23T05:56:15;6.30;99.90
27633;DHT22;15046;50.930;13.334;2023-02-23T05:58:55;6.30;99.90
27633;DHT22;15046;50.930;13.334;2023-02-23T06:01:22;6.30;99.90
27633;DHT22;15046;50.930;13.334;2023-02-23T06:03:49;6.30;99.90
27633;DHT22;15046;50.930;13.334;2023-02-23T06:06:15;6.20;99.90
27633;DHT22;15046;50.930;13.334;2023-02-23T06:08:41;6.30;99.90
27633;DHT22;15046;50.930;13.334;2023-02-23T06:11:07;6.30;99.90
27633;DHT22;15046;50.930;13.334;2023-02-23T06:13:33;6.30;99.90
27633;DHT22;15046;50.930;13.334;2023-02-23T06:15:59;6.30;99.90
27633;DHT22;15046;50.930;13.334;2023-02-23T06:18:26;6.40;99.90
27633;DHT22;15046;50.930;13.334;2023-02-23T06:20:52;6.40;99.90
27633;DHT22;15046;50.930;13.334;2023-02-23T06:23:18;6.40;99.90
27633;DHT22;15046;50.930;13.334;2023-02-23T06:25:48;6.50;99.90
27633;DHT22;15046;50.930;13.334;2023-02-23T06:28:14;6.50;99.90
27633;DHT22;15046;50.930;13.334;2023-02-23T06:30:39;6.50;99.90
27633;DHT22;15046;50.930;13.334;2023-02-23T06:33:06;6.50;99.90
27633;DHT22;15046;50.930;13.334;2023-02-23T06:35:32;6.60;99.90
27633;DHT22;15046;50.930;13.334;2023-02-23T06:37:59;6.60;99.90
27633;DHT22;15046;50.930;13.334;2023-02-23T06:40:26;6.60;99.90
27633;DHT22;15046;50.930;13.334;2023-02-23T06:42:52;6.70;99.90
27633;DHT22;15046;50.930;13.334;2023-02-23T06:45:17;6.70;99.90
27633;DHT22;15046;50.930;13.334;2023-02-23T06:47:46;6.70;99.90
27633;DHT22;15046;50.930;13.334;2023-02-23T06:50:13;6.70;99.90
27633;DHT22;15046;50.930;13.334;2023-02-23T06:52:39;6.80;99.90
27633;DHT22;15046;50.930;13.334;2023-02-23T06:55:06;6.80;99.90
27633;DHT22;15046;50.930;13.334;2023-02-23T06:57:32;6.90;99.90
27633;DHT22;15046;50.930;13.334;2023-02-23T07:00:01;6.90;99.90
27633;DHT22;15046;50.930;13.334;2023-02-23T07:02:27;7.00;99.90
27633;DHT22;15046;50.930;13.334;2023-02-23T07:04:53;7.10;99.90
27633;DHT22;15046;50.930;13.334;2023-02-23T07:07:19;7.10;99.90
27633;DHT22;15046;50.930;13.334;2023-02-23T07:09:45;7.20;99.90
27633;DHT22;15046;50.930;13.334;2023-02-23T07:12:11;7.20;99.90
27633;DHT22;15046;50.930;13.334;2023-02-23T07:14:37;7.30;99.90
27633;DHT22;15046;50.930;13.334;2023-02-23T07:17:04;7.40;99.90
27633;DHT22;15046;50.930;13.334;2023-02-23T07:19:31;7.50;99.90
27633;DHT22;15046;50.930;13.334;2023-02-23T07:21:57;7.50;99.90
27633;DHT22;15046;50.930;13.334;2023-02-23T07:24:23;7.60;99.90
27633;DHT22;15046;50.930;13.334;2023-02-23T07:26:49;7.60;99.90
27633;DHT22;15046;50.930;13.334;2023-02-23T07:29:17;7.70;99.90
27633;DHT22;15046;50.930;13.334;2023-02-23T07:31:43;7.80;99.90
27633;DHT22;15046;50.930;13.334;2023-02-23T07:34:09;7.90;99.90
27633;DHT22;15046;50.930;13.334;2023-02-23T07:36:35;8.00;99.90
27633;DHT22;15046;50.930;13.334;2023-02-23T07:39:02;8.20;99.90
27633;DHT22;15046;50.930;13.334;2023-02-23T07:41:29;8.30;99.90
27633;DHT22;15046;50.930;13.334;2023-02-23T07:43:56;8.40;99.90
27633;DHT22;15046;50.930;13.334;2023-02-23T07:46:22;8.50;99.90
27633;DHT22;15046;50.930;13.334;2023-02-23T07:48:48;8.60;99.90
27633;DHT22;15046;50.930;13.334;2023-02-23T07:51:15;8.70;99.90
27633;DHT22;15046;50.930;13.334;2023-02-23T07:53:42;8.70;99.90
27633;DHT22;15046;50.930;13.334;2023-02-23T07:56:10;8.90;99.90
27633;DHT22;15046;50.930;13.334;2023-02-23T07:58:37;8.90;99.90
27633;DHT22;15046;50.930;13.334;2023-02-23T08:01:03;9.00;99.90
27633;DHT22;15046;50.930;13.334;2023-02-23T08:03:29;9.10;99.90
27633;DHT22;15046;50.930;13.334;2023-02-23T08:05:55;9.20;99.90
27633;DHT22;15046;50.930;13.334;2023-02-23T08:08:21;9.30;99.90
27633;DHT22;15046;50.930;13.334;2023-02-23T08:10:47;9.40;99.90
27633;DHT22;15046;50.930;13.334;2023-02-23T08:13:14;9.50;99.90
27633;DHT22;15046;50.930;13.334;2023-02-23T08:15:40;9.60;99.90
27633;DHT22;15046;50.930;13.334;2023-02-23T08:18:06;9.70;99.90
27633;DHT22;15046;50.930;13.334;2023-02-23T08:20:32;9.80;99.90
27633;DHT22;15046;50.930;13.334;2023-02-23T08:22:58;9.80;99.90
27633;DHT22;15046;50.930;13.334;2023-02-23T08:25:25;9.90;99.90
27633;DHT22;15046;50.930;13.334;2023-02-23T08:27:53;10.00;99.90
27633;DHT22;15046;50.930;13.334;2023-02-23T08:30:22;10.10;99.90
27633;DHT22;15046;50.930;13.334;2023-02-23T08:32:49;10.20;99.90
27633;DHT22;15046;50.930;13.334;2023-02-23T08:35:18;10.30;99.90
27633;DHT22;15046;50.930;13.334;2023-02-23T08:37:44;10.40;99.90
27633;DHT22;15046;50.930;13.334;2023-02-23T08:40:11;10.50;99.90
27633;DHT22;15046;50.930;13.334;2023-02-23T08:42:40;10.60;99.90
27633;DHT22;15046;50.930;13.334;2023-02-23T08:45:07;10.60;99.90
27633;DHT22;15046;50.930;13.334;2023-02-23T08:47:33;10.70;99.90
27633;DHT22;15046;50.930;13.334;2023-02-23T08:50:00;10.80;99.90
27633;DHT22;15046;50.930;13.334;2023-02-23T08:52:30;10.90;99.90
27633;DHT22;15046;50.930;13.334;2023-02-23T08:54:55;11.10;99.90
27633;DHT22;15046;50.930;13.334;2023-02-23T08:57:22;11.10;99.90
27633;DHT22;15046;50.930;13.334;2023-02-23T08:59:48;11.30;99.90
27633;DHT22;15046;50.930;13.334;2023-02-23T09:02:14;11.40;99.90
27633;DHT22;15046;50.930;13.334;2023-02-23T09:04:40;11.50;99.90
27633;DHT22;15046;50.930;13.334;2023-02-23T09:07:07;11.70;99.90
27633;DHT22;15046;50.930;13.334;2023-02-23T09:09:34;11.70;99.90
27633;DHT22;15046;50.930;13.334;2023-02-23T09:12:00;11.80;99.90
27633;DHT22;15046;50.930;13.334;2023-02-23T09:14:26;12.00;99.90
27633;DHT22;15046;50.930;13.334;2023-02-23T09:16:52;12.10;99.90
27633;DHT22;15046;50.930;13.334;2023-02-23T09:19:18;12.20;99.90
27633;DHT22;15046;50.930;13.334;2023-02-23T09:21:44;12.30;99.90
27633;DHT22;15046;50.930;13.334;2023-02-23T09:24:10;12.30;99.90
27633;DHT22;15046;50.930;13.334;2023-02-23T09:26:36;12.40;99.90
27633;DHT22;15046;50.930;13.334;2023-02-23T09:29:05;12.50;99.90
27633;DHT22;15046;50.930;13.334;2023-02-23T09:31:32;12.60;99.90
27633;DHT22;15046;50.930;13.334;2023-02-23T09:33:58;12.70;99.90
27633;DHT22;15046;50.930;13.334;2023-02-23T09:36:27;12.80;99.90
27633;DHT22;15046;50.930;13.334;2023-02-23T09:38:54;12.70;99.90
27633;DHT22;15046;50.930;13.334;2023-02-23T09:44:18;12.80;99.90
27633;DHT22;15046;50.930;13.334;2023-02-23T09:49:24;12.80;99.90
27633;DHT22;15046;50.930;13.334;2023-02-23T09:51:54;13.00;99.90
27633;DHT22;15046;50.930;13.334;2023-02-23T09:54:29;13.20;99.90
27633;DHT22;15046;50.930;13.334;2023-02-23T09:56:57;13.40;99.90
27633;DHT22;15046;50.930;13.334;2023-02-23T09:59:25;13.60;99.90
27633;DHT22;15046;50.930;13.334;2023-02-23T10:02:17;13.80;99.90
27633;DHT22;15046;50.930;13.334;2023-02-23T10:07:51;14.00;99.90
27633;DHT22;15046;50.930;13.334;2023-02-23T10:18:29;14.40;99.90
27633;DHT22;15046;50.930;13.334;2023-02-23T10:21:03;14.50;99.90
27633;DHT22;15046;50.930;13.334;2023-02-23T10:26:04;14.50;99.90
27633;DHT22;15046;50.930;13.334;2023-02-23T10:28:35;14.80;99.90
27633;DHT22;15046;50.930;13.334;2023-02-23T10:31:16;15.50;99.90
27633;DHT22;15046;50.930;13.334;2023-02-23T10:33:47;16.10;99.90
27633;DHT22;15046;50.930;13.334;2023-02-23T10:36:17;16.40;99.50
27633;DHT22;15046;50.930;13.334;2023-02-23T10:38:46;16.90;98.70
27633;DHT22;15046;50.930;13.334;2023-02-23T10:41:12;17.40;97.40
27633;DHT22;15046;50.930;13.334;2023-02-23T10:43:38;17.90;96.20
27633;DHT22;15046;50.930;13.334;2023-02-23T10:46:06;18.20;94.90
27633;DHT22;15046;50.930;13.334;2023-02-23T10:48:38;18.50;94.10
27633;DHT22;15046;50.930;13.334;2023-02-23T10:51:16;18.90;93.30
27633;DHT22;15046;50.930;13.334;2023-02-23T10:53:43;19.70;92.20
27633;DHT22;15046;50.930;13.334;2023-02-23T10:56:14;20.60;90.70
27633;DHT22;15046;50.930;13.334;2023-02-23T10:58:50;21.10;88.20
27633;DHT22;15046;50.930;13.334;2023-02-23T11:01:33;21.40;85.70
27633;DHT22;15046;50.930;13.334;2023-02-23T11:06:38;21.30;82.90
27633;DHT22;15046;50.930;13.334;2023-02-23T11:09:24;21.40;81.50
27633;DHT22;15046;50.930;13.334;2023-02-23T11:12:02;21.40;80.90
27633;DHT22;15046;50.930;13.334;2023-02-23T11:14:29;21.70;79.90
27633;DHT22;15046;50.930;13.334;2023-02-23T11:16:57;22.20;78.70
27633;DHT22;15046;50.930;13.334;2023-02-23T11:19:32;22.40;77.00
27633;DHT22;15046;50.930;13.334;2023-02-23T11:21:59;22.70;75.40
27633;DHT22;15046;50.930;13.334;2023-02-23T11:24:28;22.90;74.10
27633;DHT22;15046;50.930;13.334;2023-02-23T11:26:57;22.40;73.20
27633;DHT22;15046;50.930;13.334;2023-02-23T11:29:37;21.80;74.20
27633;DHT22;15046;50.930;13.334;2023-02-23T11:32:08;21.50;74.00
27633;DHT22;15046;50.930;13.334;2023-02-23T11:34:35;20.90;74.80
27633;DHT22;15046;50.930;13.334;2023-02-23T11:39:56;19.40;77.50
27633;DHT22;15046;50.930;13.334;2023-02-23T11:42:24;18.60;79.60
27633;DHT22;15046;50.930;13.334;2023-02-23T11:45:05;18.30;80.10
27633;DHT22;15046;50.930;13.334;2023-02-23T11:47:33;18.60;80.30
27633;DHT22;15046;50.930;13.334;2023-02-23T11:50:04;19.40;79.60
27633;DHT22;15046;50.930;13.334;2023-02-23T11:52:31;19.60;79.00
27633;DHT22;15046;50.930;13.334;2023-02-23T11:54:59;19.20;78.20
27633;DHT22;15046;50.930;13.334;2023-02-23T11:57:28;18.80;78.70
27633;DHT22;15046;50.930;13.334;2023-02-23T11:59:57;19.00;79.00
27633;DHT22;15046;50.930;13.334;2023-02-23T12:02:26;19.50;78.30
27633;DHT22;15046;50.930;13.334;2023-02-23T12:07:45;20.00;77.20
27633;DHT22;15046;50.930;13.334;2023-02-23T12:13:22;19.70;77.50
27633;DHT22;15046;50.930;13.334;2023-02-23T12:16:23;20.00;77.10
27633;DHT22;15046;50.930;13.334;2023-02-23T12:19:01;20.10;76.80
27633;DHT22;15046;50.930;13.334;2023-02-23T12:21:56;20.10;76.90
27633;DHT22;15046;50.930;13.334;2023-02-23T12:24:38;20.20;76.40
27633;DHT22;15046;50.930;13.334;2023-02-23T12:30:07;20.10;76.60
27633;DHT22;15046;50.930;13.334;2023-02-23T12:35:53;20.00;76.90
27633;DHT22;15046;50.930;13.334;2023-02-23T12:40:58;18.90;77.90
27633;DHT22;15046;50.930;13.334;2023-02-23T12:43:49;18.30;79.00
27633;DHT22;15046;50.930;13.334;2023-02-23T12:46:28;17.70;80.40
27633;DHT22;15046;50.930;13.334;2023-02-23T12:49:12;17.40;81.30
27633;DHT22;15046;50.930;13.334;2023-02-23T12:52:19;17.20;82.40
27633;DHT22;15046;50.930;13.334;2023-02-23T12:54:45;17.00;82.90
27633;DHT22;15046;50.930;13.334;2023-02-23T12:57:23;16.90;83.30
27633;DHT22;15046;50.930;13.334;2023-02-23T13:05:25;17.00;83.40
27633;DHT22;15046;50.930;13.334;2023-02-23T13:10:50;16.20;84.60
27633;DHT22;15046;50.930;13.334;2023-02-23T13:13:40;15.90;85.30
27633;DHT22;15046;50.930;13.334;2023-02-23T13:16:32;15.70;86.00
27633;DHT22;15046;50.930;13.334;2023-02-23T13:24:44;15.00;87.50
27633;DHT22;15046;50.930;13.334;2023-02-23T13:29:50;14.60;88.80
27633;DHT22;15046;50.930;13.334;2023-02-23T13:32:21;14.40;89.50
27633;DHT22;15046;50.930;13.334;2023-02-23T13:37:21;14.40;90.00
27633;DHT22;15046;50.930;13.334;2023-02-23T13:40:06;14.30;90.20
27633;DHT22;15046;50.930;13.334;2023-02-23T13:51:13;13.70;90.80
27633;DHT22;15046;50.930;13.334;2023-02-23T13:53:45;13.70;91.00
27633;DHT22;15046;50.930;13.334;2023-02-23T13:56:20;13.60;91.20
27633;DHT22;15046;50.930;13.334;2023-02-23T13:58:59;13.60;91.40
27633;DHT22;15046;50.930;13.334;2023-02-23T14:01:38;13.60;91.50
27633;DHT22;15046;50.930;13.334;2023-02-23T14:04:06;13.50;91.60
27633;DHT22;15046;50.930;13.334;2023-02-23T14:06:39;13.50;91.60
27633;DHT22;15046;50.930;13.334;2023-02-23T14:09:07;13.50;91.70
27633;DHT22;15046;50.930;13.334;2023-02-23T14:14:42;13.40;91.70
27633;DHT22;15046;50.930;13.334;2023-02-23T14:19:43;13.30;92.10
27633;DHT22;15046;50.930;13.334;2023-02-23T14:22:16;13.20;92.10
27633;DHT22;15046;50.930;13.334;2023-02-23T14:27:43;13.20;92.30
27633;DHT22;15046;50.930;13.334;2023-02-23T14:30:15;13.30;92.30
27633;DHT22;15046;50.930;13.334;2023-02-23T14:32:46;13.40;92.40
27633;DHT22;15046;50.930;13.334;2023-02-23T14:38:10;13.60;92.30
27633;DHT22;15046;50.930;13.334;2023-02-23T14:40:40;13.40;92.20
27633;DHT22;15046;50.930;13.334;2023-02-23T14:46:26;13.30;92.40
27633;DHT22;15046;50.930;13.334;2023-02-23T14:49:04;13.30;92.50
27633;DHT22;15046;50.930;13.334;2023-02-23T14:51:47;13.20;92.50
27633;DHT22;15046;50.930;13.334;2023-02-23T14:54:29;13.20;92.60
27633;DHT22;15046;50.930;13.334;2023-02-23T14:56:56;13.10;92.70
27633;DHT22;15046;50.930;13.334;2023-02-23T14:59:26;13.10;92.80
27633;DHT22;15046;50.930;13.334;2023-02-23T15:01:53;13.10;92.90
27633;DHT22;15046;50.930;13.334;2023-02-23T15:04:24;13.00;92.90
27633;DHT22;15046;50.930;13.334;2023-02-23T15:06:54;13.00;93.00
27633;DHT22;15046;50.930;13.334;2023-02-23T15:11:58;13.00;93.10
27633;DHT22;15046;50.930;13.334;2023-02-23T15:14:25;13.00;93.20
27633;DHT22;15046;50.930;13.334;2023-02-23T15:16:51;13.00;93.30
27633;DHT22;15046;50.930;13.334;2023-02-23T15:19:19;13.00;93.40
27633;DHT22;15046;50.930;13.334;2023-02-23T15:21:56;13.00;93.40
27633;DHT22;15046;50.930;13.334;2023-02-23T15:24:26;13.00;93.40
27633;DHT22;15046;50.930;13.334;2023-02-23T15:26:54;12.90;93.50
27633;DHT22;15046;50.930;13.334;2023-02-23T15:29:32;12.90;93.60
27633;DHT22;15046;50.930;13.334;2023-02-23T15:32:20;12.90;93.60
27633;DHT22;15046;50.930;13.334;2023-02-23T15:34:46;12.90;93.70
27633;DHT22;15046;50.930;13.334;2023-02-23T15:37:39;12.90;93.80
27633;DHT22;15046;50.930;13.334;2023-02-23T15:40:17;12.80;93.80
27633;DHT22;15046;50.930;13.334;2023-02-23T15:42:49;12.80;93.90
27633;DHT22;15046;50.930;13.334;2023-02-23T15:45:36;12.80;94.00
27633;DHT22;15046;50.930;13.334;2023-02-23T15:48:08;12.70;94.10
27633;DHT22;15046;50.930;13.334;2023-02-23T15:50:47;12.60;94.10
27633;DHT22;15046;50.930;13.334;2023-02-23T15:53:32;12.60;94.20
27633;DHT22;15046;50.930;13.334;2023-02-23T15:56:04;12.50;94.30
27633;DHT22;15046;50.930;13.334;2023-02-23T15:58:39;12.50;94.40
27633;DHT22;15046;50.930;13.334;2023-02-23T16:01:11;12.40;94.40
27633;DHT22;15046;50.930;13.334;2023-02-23T16:03:39;12.40;94.50
27633;DHT22;15046;50.930;13.334;2023-02-23T16:06:22;12.30;94.60
27633;DHT22;15046;50.930;13.334;2023-02-23T16:11:34;12.30;94.80
27633;DHT22;15046;50.930;13.334;2023-02-23T16:14:02;12.30;94.90
27633;DHT22;15046;50.930;13.334;2023-02-23T16:16:33;12.20;94.90
27633;DHT22;15046;50.930;13.334;2023-02-23T16:18:59;12.10;94.90
27633;DHT22;15046;50.930;13.334;2023-02-23T16:21:28;12.10;95.00
27633;DHT22;15046;50.930;13.334;2023-02-23T16:24:06;12.10;95.10
27633;DHT22;15046;50.930;13.334;2023-02-23T16:26:46;12.10;95.20
27633;DHT22;15046;50.930;13.334;2023-02-23T16:29:20;12.10;95.20
27633;DHT22;15046;50.930;13.334;2023-02-23T16:31:58;12.10;95.30
27633;DHT22;15046;50.930;13.334;2023-02-23T16:36:57;12.00;95.50
27633;DHT22;15046;50.930;13.334;2023-02-23T16:39:28;12.00;95.50
27633;DHT22;15046;50.930;13.334;2023-02-23T16:41:56;12.00;95.60
27633;DHT22;15046;50.930;13.334;2023-02-23T16:44:24;12.00;95.70
27633;DHT22;15046;50.930;13.334;2023-02-23T16:49:29;12.00;95.80
27633;DHT22;15046;50.930;13.334;2023-02-23T16:51:56;12.00;95.90
27633;DHT22;15046;50.930;13.334;2023-02-23T16:54:22;11.90;95.90
27633;DHT22;15046;50.930;13.334;2023-02-23T16:56:49;11.90;96.00
27633;DHT22;15046;50.930;13.334;2023-02-23T16:59:16;11.90;96.10
27633;DHT22;15046;50.930;13.334;2023-02-23T17:01:43;11.90;96.30
27633;DHT22;15046;50.930;13.334;2023-02-23T17:04:16;11.80;96.50
27633;DHT22;15046;50.930;13.334;2023-02-23T17:06:43;11.60;96.70
27633;DHT22;15046;50.930;13.334;2023-02-23T17:09:12;11.40;97.10
27633;DHT22;15046;50.930;13.334;2023-02-23T17:11:39;11.20;97.50
27633;DHT22;15046;50.930;13.334;2023-02-23T17:14:05;11.00;98.00
27633;DHT22;15046;50.930;13.334;2023-02-23T17:16:31;10.90;98.50
27633;DHT22;15046;50.930;13.334;2023-02-23T17:18:56;10.80;99.20
27633;DHT22;15046;50.930;13.334;2023-02-23T17:21:26;10.70;99.90
27633;DHT22;15046;50.930;13.334;2023-02-23T17:23:52;10.60;99.90
27633;DHT22;15046;50.930;13.334;2023-02-23T17:26:23;10.50;99.90
27633;DHT22;15046;50.930;13.334;2023-02-23T17:28:50;10.50;99.90
27633;DHT22;15046;50.930;13.334;2023-02-23T17:31:17;10.50;99.90
27633;DHT22;15046;50.930;13.334;2023-02-23T17:33:44;10.50;99.90
27633;DHT22;15046;50.930;13.334;2023-02-23T17:36:13;10.50;99.90
27633;DHT22;15046;50.930;13.334;2023-02-23T17:38:40;10.50;99.90
27633;DHT22;15046;50.930;13.334;2023-02-23T17:41:14;10.60;99.90
27633;DHT22;15046;50.930;13.334;2023-02-23T17:43:40;10.50;99.90
27633;DHT22;15046;50.930;13.334;2023-02-23T17:46:06;10.60;99.90
27633;DHT22;15046;50.930;13.334;2023-02-23T17:48:32;10.60;99.90
27633;DHT22;15046;50.930;13.334;2023-02-23T17:51:02;10.50;99.90
27633;DHT22;15046;50.930;13.334;2023-02-23T17:53:29;10.50;99.90
27633;DHT22;15046;50.930;13.334;2023-02-23T17:55:56;10.50;99.90
27633;DHT22;15046;50.930;13.334;2023-02-23T17:58:23;10.50;99.90